Time;durP1;ratioP1;P1;durP2;ratioP2;P2;SDS_P1;SDS_P2;PMS_P1;PMS_P2;Temp;Humidity;BMP_temperature;BMP_pressure;BME280_temperature;BME280_humidity;BME280_pressure;Samples;Min_cycle;Max_cycle;Signal;HPM_P1;HPM_P2
2022/07/20 00:01:25;;;;;;;4.40;3.40;;;29.00;32.80;;;;;;5107533;27;20464;-90
2022/07/20 00:03:52;;;;;;;5.70;4.23;;;28.90;32.40;;;;;;5128427;27;20812;-90
2022/07/20 00:06:21;;;;;;;6.70;4.30;;;28.90;32.80;;;;;;5127168;27;20464;-91
2022/07/20 00:11:33;;;;;;;4.97;4.47;;;28.80;33.80;;;;;;5111563;27;20473;-89
2022/07/20 00:14:01;;;;;;;4.60;3.90;;;28.80;33.90;;;;;;5110036;27;20460;-88
2022/07/20 00:19:48;;;;;;;4.73;4.20;;;28.70;34.50;;;;;;5110217;27;20506;-89
2022/07/20 00:22:16;;;;;;;7.23;4.27;;;28.60;34.20;;;;;;5120809;27;20461;-89
2022/07/20 00:24:43;;;;;;;9.87;4.20;;;28.60;34.80;;;;;;5108736;27;20448;-90
2022/07/20 00:34:59;;;;;;;5.00;4.00;;;28.30;34.30;;;;;;5129441;27;20432;-89
2022/07/20 00:37:27;;;;;;;9.70;4.70;;;28.30;34.20;;;;;;5106443;27;21067;-89
2022/07/20 00:39:54;;;;;;;9.27;4.53;;;28.20;34.40;;;;;;5112734;27;20461;-89
2022/07/20 00:42:21;;;;;;;7.43;4.60;;;28.20;34.70;;;;;;5128158;27;20464;-90
2022/07/20 00:44:48;;;;;;;5.90;4.03;;;28.20;34.50;;;;;;5111977;27;20457;-90
2022/07/20 00:47:15;;;;;;;5.80;4.40;;;28.10;34.40;;;;;;5091931;27;21002;-90
2022/07/20 00:57:07;;;;;;;5.53;4.10;;;27.90;35.60;;;;;;5104800;27;20421;-88
2022/07/20 00:59:34;;;;;;;4.20;3.80;;;27.90;35.10;;;;;;5114357;27;20468;-89
2022/07/20 01:02:01;;;;;;;5.23;4.27;;;27.80;35.40;;;;;;5148229;27;20468;-90
2022/07/20 01:04:28;;;;;;;4.63;3.90;;;27.80;35.80;;;;;;5094709;27;20440;-89
2022/07/20 01:06:56;;;;;;;4.90;4.47;;;27.80;35.70;;;;;;5112779;27;20453;-89
2022/07/20 01:09:23;;;;;;;5.60;3.90;;;27.70;35.70;;;;;;5128038;27;20517;-89
2022/07/20 01:11:51;;;;;;;5.83;4.00;;;27.70;35.60;;;;;;5116165;27;20473;-89
2022/07/20 01:14:23;;;;;;;5.07;4.13;;;27.70;35.60;;;;;;5112519;27;20457;-89
2022/07/20 01:16:50;;;;;;;3.67;3.37;;;27.70;35.70;;;;;;5131028;27;20479;-89
2022/07/20 01:19:17;;;;;;;5.03;4.53;;;27.70;35.50;;;;;;5098776;27;20472;-89
2022/07/20 01:21:46;;;;;;;6.80;3.77;;;27.60;35.80;;;;;;5110147;27;20537;-89
2022/07/20 01:24:14;;;;;;;12.20;4.70;;;27.60;35.80;;;;;;5079196;27;20881;-90
2022/07/20 01:26:43;;;;;;;7.53;3.90;;;27.50;36.10;;;;;;5087932;27;20460;-90
2022/07/20 01:29:12;;;;;;;7.80;4.40;;;27.40;35.70;;;;;;5110906;27;21186;-89
2022/07/20 01:31:39;;;;;;;5.53;3.90;;;27.40;35.90;;;;;;5109706;27;21163;-89
2022/07/20 01:36:59;;;;;;;5.50;3.80;;;27.30;36.00;;;;;;5109888;27;20930;-88
2022/07/20 01:39:26;;;;;;;7.03;4.67;;;27.20;35.70;;;;;;5078448;27;20474;-89
2022/07/20 01:41:53;;;;;;;4.73;4.33;;;27.10;36.10;;;;;;5127411;27;20514;-89
2022/07/20 01:44:22;;;;;;;6.47;4.03;;;27.10;36.20;;;;;;5103359;27;20448;-90
2022/07/20 01:46:49;;;;;;;11.43;4.77;;;27.10;36.20;;;;;;5107829;27;20463;-91
2022/07/20 01:49:16;;;;;;;5.73;4.20;;;27.10;36.10;;;;;;5094106;27;20444;-90
2022/07/20 01:51:44;;;;;;;10.50;5.00;;;27.00;36.40;;;;;;5092968;27;20839;-90
2022/07/20 01:54:14;;;;;;;5.50;3.90;;;26.90;36.50;;;;;;5108455;27;20509;-92
2022/07/20 01:56:41;;;;;;;6.47;4.40;;;26.90;36.60;;;;;;5098271;27;20448;-89
2022/07/20 01:59:09;;;;;;;7.90;4.03;;;26.90;36.80;;;;;;5126294;27;20571;-89
2022/07/20 02:01:37;;;;;;;4.67;4.27;;;26.90;36.80;;;;;;5096957;27;20488;-89
2022/07/20 02:06:57;;;;;;;10.37;5.03;;;26.80;37.10;;;;;;5118530;27;20527;-89
2022/07/20 02:10:15;;;;;;;6.10;4.00;;;26.80;37.50;;;;;;5106039;27;20854;-90
2022/07/20 02:12:43;;;;;;;6.70;3.90;;;26.70;37.80;;;;;;5115780;27;20449;-89
2022/07/20 02:16:14;;;;;;;8.57;4.43;;;26.70;38.20;;;;;;5123011;27;20449;-89
2022/07/20 02:18:00;;;;;;;10.93;4.80;;;26.60;38.40;;;;;;5145980;27;20833;-89
2022/07/20 02:20:27;;;;;;;5.00;3.97;;;26.50;38.50;;;;;;5103385;27;20470;-90
2022/07/20 02:22:54;;;;;;;5.73;4.80;;;26.50;38.40;;;;;;5100315;27;20508;-90
2022/07/20 02:25:21;;;;;;;6.13;4.10;;;26.50;38.60;;;;;;5106960;27;20441;-90
2022/07/20 02:27:49;;;;;;;5.80;4.17;;;26.40;38.90;;;;;;5108903;27;20705;-89
2022/07/20 02:30:16;;;;;;;6.37;4.30;;;26.40;39.00;;;;;;5086229;27;20960;-90
2022/07/20 02:32:43;;;;;;;4.80;4.30;;;26.30;39.30;;;;;;5130798;27;20429;-90
2022/07/20 02:35:10;;;;;;;10.30;5.00;;;26.40;38.90;;;;;;5113716;27;20447;-90
2022/07/20 02:37:38;;;;;;;10.73;5.20;;;26.30;38.60;;;;;;5113579;27;20441;-90
2022/07/20 02:40:30;;;;;;;5.87;4.60;;;26.10;39.00;;;;;;5093682;27;20462;-90
2022/07/20 02:50:49;;;;;;;4.80;4.30;;;26.00;38.80;;;;;;5104438;27;21007;-90
2022/07/20 02:53:16;;;;;;;11.13;4.23;;;25.90;39.00;;;;;;5106047;27;20449;-89
2022/07/20 02:55:44;;;;;;;5.87;4.50;;;25.80;39.30;;;;;;5146441;27;20925;-89
2022/07/20 02:58:15;;;;;;;8.00;5.40;;;25.90;39.20;;;;;;5100888;27;20886;-91
2022/07/20 03:00:43;;;;;;;10.43;4.83;;;25.90;39.20;;;;;;5130565;27;20488;-88
2022/07/20 03:03:10;;;;;;;6.43;4.53;;;25.90;39.10;;;;;;5109084;27;20532;-90
2022/07/20 03:05:38;;;;;;;6.77;4.43;;;25.90;38.90;;;;;;5101696;27;20449;-89
2022/07/20 03:08:32;;;;;;;13.10;5.10;;;25.90;39.30;;;;;;5127509;27;20439;-89
2022/07/20 03:10:59;;;;;;;4.80;4.13;;;25.80;39.10;;;;;;5106422;27;20469;-89
2022/07/20 03:14:18;;;;;;;4.53;4.00;;;25.80;39.30;;;;;;5123810;27;20457;-90
2022/07/20 03:16:45;;;;;;;7.20;4.83;;;25.80;39.60;;;;;;5086757;27;20451;-90
2022/07/20 03:19:12;;;;;;;11.10;4.23;;;25.70;40.00;;;;;;5108267;27;20445;-90
2022/07/20 03:21:39;;;;;;;7.00;4.63;;;25.70;40.40;;;;;;5125561;27;20489;-88
2022/07/20 03:24:33;;;;;;;10.43;5.13;;;25.60;41.00;;;;;;5122906;27;20855;-85
2022/07/20 03:27:00;;;;;;;9.30;4.90;;;25.60;40.90;;;;;;5122042;27;20456;-89
2022/07/20 03:29:27;;;;;;;8.83;5.20;;;25.60;40.30;;;;;;5084763;27;20564;-88
2022/07/20 03:31:54;;;;;;;9.10;4.70;;;25.60;39.70;;;;;;5107927;27;20962;-87
2022/07/20 03:34:20;;;;;;;4.80;4.40;;;25.50;40.20;;;;;;5124699;27;20449;-87
2022/07/20 03:36:48;;;;;;;6.30;4.50;;;25.50;40.30;;;;;;5127928;27;20448;-88
2022/07/20 03:39:15;;;;;;;6.17;5.33;;;25.40;40.40;;;;;;5144534;27;20548;-88
2022/07/20 03:41:44;;;;;;;10.27;5.00;;;25.40;40.50;;;;;;5128319;27;20832;-88
2022/07/20 03:44:13;;;;;;;5.63;5.03;;;25.40;40.60;;;;;;5134214;27;20451;-86
2022/07/20 03:46:40;;;;;;;7.00;5.10;;;25.30;41.00;;;;;;5098003;27;20440;-87
2022/07/20 03:49:07;;;;;;;7.87;5.00;;;25.30;41.10;;;;;;5096454;27;20467;-87
2022/07/20 03:51:37;;;;;;;6.40;4.70;;;25.30;41.20;;;;;;5104929;27;20479;-88
2022/07/20 03:54:29;;;;;;;8.00;4.50;;;25.30;41.60;;;;;;5113634;27;20441;-89
2022/07/20 03:56:58;;;;;;;4.97;4.50;;;25.30;41.40;;;;;;5140765;27;20437;-87
2022/07/20 03:59:24;;;;;;;7.60;4.83;;;25.20;41.40;;;;;;5120018;27;20449;-87
2022/07/20 04:01:51;;;;;;;5.47;4.67;;;25.20;41.30;;;;;;5090176;27;20461;-87
2022/07/20 04:04:18;;;;;;;6.27;4.50;;;25.20;41.80;;;;;;5118764;27;20527;-87
2022/07/20 04:06:46;;;;;;;5.00;4.50;;;25.10;41.50;;;;;;5107554;27;20524;-87
2022/07/20 04:09:13;;;;;;;9.23;4.73;;;25.10;42.10;;;;;;5118756;27;20445;-87
2022/07/20 04:11:40;;;;;;;6.70;5.03;;;25.00;42.30;;;;;;5119332;27;20474;-87
2022/07/20 04:14:33;;;;;;;11.37;4.97;;;25.00;42.60;;;;;;5134957;27;20465;-86
2022/07/20 04:17:00;;;;;;;6.10;4.30;;;25.10;43.00;;;;;;5140357;27;20465;-87
2022/07/20 04:19:27;;;;;;;12.63;4.60;;;25.10;43.20;;;;;;5124268;27;20461;-86
2022/07/20 04:21:55;;;;;;;7.63;4.90;;;25.00;42.40;;;;;;5104458;27;20491;-87
2022/07/20 04:24:22;;;;;;;7.30;4.60;;;25.00;42.00;;;;;;5118341;27;20448;-87
2022/07/20 04:26:49;;;;;;;10.80;4.87;;;25.00;41.70;;;;;;5140476;27;20448;-88
2022/07/20 04:29:16;;;;;;;12.27;5.23;;;25.10;41.30;;;;;;5104034;27;20480;-88
2022/07/20 04:31:44;;;;;;;11.20;5.93;;;25.10;41.20;;;;;;5120903;27;20483;-87
2022/07/20 04:34:13;;;;;;;5.57;4.43;;;25.20;41.10;;;;;;5137084;27;20449;-86
2022/07/20 04:36:40;;;;;;;5.17;4.67;;;25.20;41.30;;;;;;5117127;27;20471;-88
2022/07/20 04:39:07;;;;;;;5.53;4.13;;;25.20;41.40;;;;;;5137170;27;20516;-87
2022/07/20 04:41:34;;;;;;;11.20;5.37;;;25.20;41.30;;;;;;5093347;27;20472;-86
2022/07/20 04:44:01;;;;;;;9.80;5.40;;;25.20;41.40;;;;;;5108665;27;20448;-88
2022/07/20 04:46:29;;;;;;;5.77;4.60;;;25.20;41.30;;;;;;5136377;27;20448;-88
2022/07/20 04:48:57;;;;;;;6.60;4.70;;;25.10;42.50;;;;;;5123737;27;20441;-87
2022/07/20 04:51:24;;;;;;;5.43;4.80;;;25.10;42.60;;;;;;5139327;27;20464;-88
2022/07/20 04:53:51;;;;;;;6.30;5.17;;;25.20;43.20;;;;;;5107468;27;20479;-89
2022/07/20 04:56:19;;;;;;;8.77;5.30;;;25.20;43.10;;;;;;5122115;27;20449;-85
2022/07/20 04:58:50;;;;;;;8.37;5.60;;;25.30;43.20;;;;;;5122102;27;20455;-87
2022/07/20 05:01:17;;;;;;;5.07;4.50;;;25.30;43.20;;;;;;5105297;27;21030;-90
2022/07/20 05:03:44;;;;;;;5.07;4.63;;;25.30;43.40;;;;;;5106075;27;21174;-87
2022/07/20 05:06:12;;;;;;;9.67;5.03;;;25.30;43.40;;;;;;5110228;27;20532;-87
2022/07/20 05:08:39;;;;;;;8.63;4.40;;;25.30;43.30;;;;;;5121167;27;20512;-86
2022/07/20 05:11:06;;;;;;;5.80;4.83;;;25.30;43.40;;;;;;5121063;27;20467;-87
2022/07/20 05:13:33;;;;;;;8.40;4.97;;;25.30;43.50;;;;;;5141769;27;20465;-87
2022/07/20 05:16:00;;;;;;;8.33;5.30;;;25.30;42.90;;;;;;5138787;27;20480;-86
2022/07/20 05:18:28;;;;;;;7.10;5.13;;;25.30;42.50;;;;;;5122583;27;20660;-88
2022/07/20 05:20:55;;;;;;;8.20;5.00;;;25.30;42.40;;;;;;5139859;27;20673;-87
2022/07/20 05:23:24;;;;;;;8.10;5.37;;;25.20;42.50;;;;;;5129138;27;20476;-87
2022/07/20 05:25:51;;;;;;;8.83;4.33;;;25.20;42.80;;;;;;5121021;27;20982;-87
2022/07/20 05:28:20;;;;;;;14.50;6.50;;;25.30;42.80;;;;;;5136353;27;20453;-86
2022/07/20 05:34:04;;;;;;;9.30;5.17;;;25.30;42.70;;;;;;5119914;27;20444;-87
2022/07/20 05:36:31;;;;;;;7.67;4.70;;;25.40;43.20;;;;;;5102302;27;20451;-88
2022/07/20 05:38:59;;;;;;;5.60;4.73;;;25.40;43.60;;;;;;5140539;27;20448;-87
2022/07/20 05:41:26;;;;;;;11.07;5.20;;;25.40;43.20;;;;;;5103600;27;20487;-87
2022/07/20 05:43:53;;;;;;;7.33;4.97;;;25.40;43.30;;;;;;5139886;27;20445;-87
2022/07/20 05:46:20;;;;;;;8.07;5.47;;;25.50;43.60;;;;;;5141524;27;20445;-87
2022/07/20 05:48:47;;;;;;;12.27;5.00;;;25.60;43.70;;;;;;5140545;27;20453;-88
2022/07/20 05:51:14;;;;;;;9.90;5.67;;;25.60;44.10;;;;;;5133811;27;21345;-87
2022/07/20 05:53:41;;;;;;;14.47;6.10;;;25.80;43.20;;;;;;5119606;27;21002;-88
2022/07/20 05:56:09;;;;;;;21.77;5.87;;;25.60;42.40;;;;;;5140771;27;20505;-86
2022/07/20 05:58:36;;;;;;;29.20;6.30;;;25.70;42.10;;;;;;5122172;27;20451;-86
2022/07/20 06:01:03;;;;;;;14.50;6.63;;;25.70;41.70;;;;;;5119708;27;20472;-86
2022/07/20 06:03:30;;;;;;;24.03;6.53;;;25.70;41.40;;;;;;5133681;27;20460;-86
2022/07/20 06:05:57;;;;;;;18.53;6.27;;;25.90;40.80;;;;;;5138944;27;20457;-85
2022/07/20 06:08:24;;;;;;;28.83;7.07;;;25.60;40.60;;;;;;5139088;27;20453;-88
2022/07/20 06:10:51;;;;;;;18.53;6.53;;;25.80;41.40;;;;;;5140879;27;21031;-86
2022/07/20 06:13:19;;;;;;;24.00;6.30;;;26.10;41.40;;;;;;5122735;27;20459;-86
2022/07/20 06:15:46;;;;;;;14.87;5.77;;;26.30;41.10;;;;;;5139141;27;20464;-87
2022/07/20 06:18:15;;;;;;;35.27;6.50;;;26.60;40.90;;;;;;5126086;27;20556;-88
2022/07/20 06:20:42;;;;;;;21.60;6.60;;;26.90;40.40;;;;;;5120047;27;20467;-86
2022/07/20 06:26:50;;;;;;;27.23;6.07;;;27.20;40.30;;;;;;5115948;27;20429;-88
2022/07/20 06:29:18;;;;;;;25.73;6.00;;;27.40;39.60;;;;;;5138387;27;20453;-87
2022/07/20 06:31:45;;;;;;;20.33;7.20;;;27.60;38.50;;;;;;5144151;27;20476;-88
2022/07/20 06:34:15;;;;;;;31.33;5.93;;;27.50;37.80;;;;;;5139982;27;20453;-87
2022/07/20 06:36:44;;;;;;;28.83;6.80;;;27.70;38.60;;;;;;5138637;27;20449;-89
2022/07/20 06:39:11;;;;;;;12.53;5.10;;;27.90;37.90;;;;;;5124944;27;20949;-88
2022/07/20 06:41:38;;;;;;;11.37;5.70;;;27.90;37.30;;;;;;5141676;27;20488;-89
2022/07/20 06:44:10;;;;;;;16.83;6.37;;;28.10;37.00;;;;;;5120282;27;20535;-89
2022/07/20 06:46:38;;;;;;;21.17;5.13;;;28.20;36.30;;;;;;5128217;27;20445;-88
2022/07/20 06:49:06;;;;;;;21.73;5.80;;;28.30;37.30;;;;;;5139895;27;20452;-88
2022/07/20 06:51:33;;;;;;;9.90;5.60;;;28.40;36.80;;;;;;5107510;27;20502;-90
2022/07/20 07:02:17;;;;;;;14.53;6.00;;;28.60;37.20;;;;;;5123506;27;20516;-89
2022/07/20 07:04:46;;;;;;;13.53;5.40;;;28.80;36.70;;;;;;5125823;27;20944;-89
2022/07/20 07:07:12;;;;;;;20.83;6.50;;;28.90;37.30;;;;;;5108759;27;20459;-89
2022/07/20 07:09:39;;;;;;;21.53;5.40;;;28.80;37.60;;;;;;5136465;27;20453;-89
2022/07/20 07:12:07;;;;;;;10.03;5.60;;;29.00;37.90;;;;;;5111761;27;20908;-89
2022/07/20 07:15:25;;;;;;;11.33;5.73;;;29.10;37.20;;;;;;5109227;27;20464;-90
2022/07/20 07:18:43;;;;;;;11.80;6.43;;;29.30;36.50;;;;;;5126282;27;20437;-89
2022/07/20 07:21:12;;;;;;;13.70;6.20;;;29.40;36.80;;;;;;5148591;27;20480;-88
2022/07/20 07:23:39;;;;;;;12.20;5.70;;;29.30;36.50;;;;;;5146674;27;20439;-89
2022/07/20 07:34:21;;;;;;;8.60;5.30;;;29.90;36.40;;;;;;5125524;27;21392;-89
2022/07/20 07:36:49;;;;;;;8.63;5.57;;;30.20;36.00;;;;;;5128838;27;20455;-90
2022/07/20 07:43:23;;;;;;;8.20;5.70;;;30.50;35.40;;;;;;5127853;27;20519;-88
2022/07/20 07:45:50;;;;;;;7.93;5.63;;;30.90;35.00;;;;;;5130848;27;20441;-89
2022/07/20 07:48:17;;;;;;;5.53;4.97;;;31.00;34.00;;;;;;5113162;27;21025;-90
2022/07/20 07:51:34;;;;;;;10.90;4.43;;;31.10;33.40;;;;;;5115676;27;20495;-89
2022/07/20 07:54:53;;;;;;;17.50;5.20;;;31.40;33.20;;;;;;5144921;27;21115;-89
2022/07/20 07:57:20;;;;;;;11.00;4.90;;;31.50;32.60;;;;;;5129855;27;20448;-89
2022/07/20 07:59:47;;;;;;;9.23;5.40;;;31.60;32.70;;;;;;5150647;27;20661;-89
2022/07/20 08:02:14;;;;;;;5.53;3.50;;;31.80;33.30;;;;;;5101680;27;20564;-90
2022/07/20 08:04:41;;;;;;;4.80;3.40;;;31.90;30.90;;;;;;5128660;27;20441;-88
2022/07/20 08:07:08;;;;;;;4.53;3.50;;;32.00;30.50;;;;;;5128613;27;20448;-88
2022/07/20 08:09:35;;;;;;;3.53;3.23;;;32.20;29.70;;;;;;5131345;27;20449;-89
2022/07/20 08:12:04;;;;;;;5.70;3.90;;;32.40;29.70;;;;;;5110132;27;20500;-90
2022/07/20 08:14:31;;;;;;;19.67;6.13;;;32.60;30.00;;;;;;5146342;27;20453;-86
2022/07/20 08:16:58;;;;;;;69.40;7.67;;;32.80;29.60;;;;;;5142738;27;20555;-89
2022/07/20 08:19:25;;;;;;;5.00;4.10;;;33.10;30.20;;;;;;5122545;27;20502;-88
2022/07/20 08:21:52;;;;;;;7.77;4.13;;;33.30;29.80;;;;;;5128164;27;20488;-88
2022/07/20 08:24:19;;;;;;;4.00;3.60;;;33.40;28.60;;;;;;5122414;27;20534;-89
2022/07/20 08:26:46;;;;;;;4.00;3.60;;;33.40;28.80;;;;;;5112334;27;20443;-89
2022/07/20 08:29:14;;;;;;;4.13;3.73;;;33.40;28.40;;;;;;5126131;27;20553;-90
2022/07/20 08:31:41;;;;;;;4.37;3.77;;;33.40;29.20;;;;;;5111432;27;20776;-89
2022/07/20 08:34:08;;;;;;;3.83;3.53;;;33.50;29.00;;;;;;5093829;27;20540;-88
2022/07/20 08:42:44;;;;;;;6.40;3.67;;;34.20;28.60;;;;;;5109720;27;21095;-89
2022/07/20 08:45:13;;;;;;;6.90;3.73;;;34.40;28.10;;;;;;5083066;27;20456;-88
2022/07/20 08:47:42;;;;;;;6.90;3.80;;;34.40;28.00;;;;;;5111560;27;20447;-89
2022/07/20 08:50:09;;;;;;;7.33;3.60;;;34.40;28.40;;;;;;5126000;27;20506;-89
2022/07/20 08:52:37;;;;;;;4.80;4.00;;;34.60;28.60;;;;;;5108401;27;20461;-88
2022/07/20 08:55:04;;;;;;;6.60;4.03;;;34.80;28.00;;;;;;5107863;27;20452;-90
2022/07/20 09:02:01;;;;;;;5.27;4.07;;;35.00;27.90;;;;;;5124214;27;20893;-88
2022/07/20 09:04:29;;;;;;;4.50;4.10;;;35.20;27.50;;;;;;5078573;27;20455;-88
2022/07/20 09:06:56;;;;;;;8.03;4.53;;;35.40;27.40;;;;;;5087904;27;20453;-88
2022/07/20 09:09:24;;;;;;;5.57;3.83;;;35.50;27.20;;;;;;5094448;27;20452;-87
2022/07/20 09:11:52;;;;;;;8.10;3.80;;;35.50;27.10;;;;;;5124296;27;20543;-88
2022/07/20 09:14:48;;;;;;;7.83;4.23;;;35.50;26.80;;;;;;5085727;27;20479;-87
2022/07/20 09:17:18;;;;;;;5.03;4.00;;;35.60;27.70;;;;;;5095944;27;20441;-88
2022/07/20 09:19:57;;;;;;;8.90;4.00;;;36.00;28.10;;;;;;5096609;27;20457;-88
2022/07/20 09:22:34;;;;;;;4.73;4.20;;;36.30;26.90;;;;;;5099768;27;20472;-89
2022/07/20 09:25:11;;;;;;;7.23;4.67;;;36.40;26.20;;;;;;5121167;27;20898;-89
2022/07/20 09:27:38;;;;;;;7.40;4.30;;;36.30;26.20;;;;;;5117808;27;22902;-89
2022/07/20 09:30:10;;;;;;;5.83;4.27;;;36.30;25.50;;;;;;5136161;27;20461;-90
2022/07/20 09:32:54;;;;;;;8.47;4.60;;;36.20;26.40;;;;;;5136899;27;20471;-88
2022/07/20 09:35:23;;;;;;;6.07;4.63;;;36.30;26.30;;;;;;5133519;27;20449;-90
2022/07/20 09:37:50;;;;;;;9.13;4.80;;;36.30;26.50;;;;;;5139356;27;20452;-89
2022/07/20 09:40:17;;;;;;;4.30;4.00;;;36.50;26.30;;;;;;5105904;27;20475;-87
2022/07/20 09:42:46;;;;;;;4.60;3.90;;;36.40;25.90;;;;;;5126219;27;20543;-89
2022/07/20 09:45:26;;;;;;;5.37;4.87;;;36.60;26.90;;;;;;5090852;27;20450;-90
2022/07/20 09:48:12;;;;;;;12.80;3.93;;;37.10;26.20;;;;;;5137109;27;20452;-89
2022/07/20 09:50:42;;;;;;;4.50;4.10;;;37.40;25.40;;;;;;5142452;27;20470;-88
2022/07/20 09:53:59;;;;;;;4.73;4.33;;;37.40;25.10;;;;;;5141947;27;20486;-89
2022/07/20 09:56:54;;;;;;;5.67;5.00;;;37.50;26.00;;;;;;5106367;27;20436;-90
2022/07/20 09:59:22;;;;;;;4.83;4.40;;;37.80;24.80;;;;;;5119242;27;20570;-90
2022/07/20 10:01:52;;;;;;;5.07;4.17;;;37.80;25.30;;;;;;5124540;27;20482;-89
2022/07/20 10:04:21;;;;;;;9.53;4.10;;;38.00;23.80;;;;;;5143465;27;20445;-88
2022/07/20 10:06:50;;;;;;;6.97;4.47;;;37.90;24.80;;;;;;5141113;27;21039;-90
2022/07/20 10:09:18;;;;;;;11.03;4.40;;;38.20;24.70;;;;;;5124328;27;21345;-88
2022/07/20 10:11:47;;;;;;;4.90;4.10;;;38.50;24.10;;;;;;5141974;27;20471;-89
2022/07/20 10:14:17;;;;;;;5.37;4.27;;;38.50;23.60;;;;;;5111680;27;21032;-90
2022/07/20 10:16:47;;;;;;;6.00;4.90;;;38.70;23.40;;;;;;5133256;27;20457;-90
2022/07/20 10:19:14;;;;;;;6.43;4.63;;;38.20;24.40;;;;;;5094275;27;20459;-89
2022/07/20 10:21:43;;;;;;;7.27;4.13;;;38.50;23.60;;;;;;5121969;27;20472;-90
2022/07/20 10:24:25;;;;;;;5.50;4.90;;;38.60;23.00;;;;;;5121023;27;20476;-89
2022/07/20 10:26:54;;;;;;;5.70;4.83;;;38.80;23.50;;;;;;5139258;27;21236;-89
2022/07/20 10:29:31;;;;;;;4.60;4.20;;;39.00;23.10;;;;;;5136158;27;21230;-90
2022/07/20 10:32:14;;;;;;;8.10;4.50;;;38.90;22.60;;;;;;5099417;27;20464;-89
2022/07/20 10:34:42;;;;;;;6.37;5.40;;;39.00;22.90;;;;;;5122508;27;20454;-89
2022/07/20 10:37:30;;;;;;;7.00;4.30;;;39.10;22.60;;;;;;5125846;27;20449;-90
2022/07/20 10:40:08;;;;;;;4.93;4.53;;;39.20;22.60;;;;;;5139831;27;21047;-89
2022/07/20 10:42:38;;;;;;;6.53;4.50;;;39.30;22.80;;;;;;5143052;27;20591;-89
2022/07/20 10:45:29;;;;;;;6.73;4.33;;;39.50;22.70;;;;;;5125616;27;20445;-88
2022/07/20 10:47:57;;;;;;;4.90;4.40;;;39.70;22.80;;;;;;5106168;27;21186;-88
2022/07/20 10:50:29;;;;;;;8.23;4.90;;;39.50;21.90;;;;;;5127471;27;20456;-89
2022/07/20 10:52:59;;;;;;;4.60;4.20;;;39.30;23.20;;;;;;5126989;27;20445;-89
2022/07/20 10:55:50;;;;;;;4.90;4.50;;;39.50;21.90;;;;;;5126678;27;20445;-89
2022/07/20 11:01:36;;;;;;;4.90;4.50;;;39.90;22.10;;;;;;5126106;27;20967;-89
2022/07/20 11:04:03;;;;;;;5.30;4.10;;;40.20;21.40;;;;;;5127836;27;20965;-89
2022/07/20 11:06:30;;;;;;;5.00;4.03;;;40.40;21.30;;;;;;5127286;27;20443;-90
2022/07/20 11:09:00;;;;;;;11.10;4.70;;;40.30;20.90;;;;;;5127205;27;20460;-91
2022/07/20 11:11:28;;;;;;;4.60;4.20;;;40.00;20.80;;;;;;5144520;27;20915;-90
2022/07/20 11:13:55;;;;;;;7.50;4.53;;;40.20;22.20;;;;;;5118178;27;20460;-89
2022/07/20 11:16:25;;;;;;;5.03;3.70;;;40.30;21.50;;;;;;5121844;27;20457;-90
2022/07/20 11:18:53;;;;;;;4.70;4.30;;;40.50;21.90;;;;;;5097501;27;20445;-89
2022/07/20 11:21:29;;;;;;;5.37;4.77;;;40.70;21.10;;;;;;5142503;27;20459;-89
2022/07/20 11:30:35;;;;;;;5.67;4.30;;;40.10;20.80;;;;;;5142452;27;20479;-89
2022/07/20 11:33:02;;;;;;;6.10;3.87;;;39.90;21.00;;;;;;5127662;27;20445;-88
2022/07/20 11:38:47;;;;;;;6.50;5.20;;;40.40;21.30;;;;;;5126358;27;20831;-89
2022/07/20 11:41:16;;;;;;;4.83;3.97;;;40.50;19.90;;;;;;5144191;27;20465;-89
2022/07/20 11:43:45;;;;;;;4.77;4.30;;;40.60;20.50;;;;;;5144555;27;21144;-89
2022/07/20 11:46:15;;;;;;;4.10;3.70;;;40.70;20.40;;;;;;5127167;27;20468;-89
2022/07/20 11:48:42;;;;;;;3.80;3.50;;;40.70;20.10;;;;;;5127041;27;20464;-89
2022/07/20 11:51:10;;;;;;;5.20;3.60;;;40.80;19.60;;;;;;5138812;27;20472;-90
2022/07/20 11:53:38;;;;;;;6.33;3.83;;;40.80;19.60;;;;;;5124451;27;20441;-88
2022/07/20 11:56:11;;;;;;;5.03;3.90;;;40.70;18.60;;;;;;5104828;27;20457;-89
2022/07/20 11:58:40;;;;;;;4.77;3.90;;;40.50;19.30;;;;;;5141948;27;20959;-89
2022/07/20 12:01:10;;;;;;;5.20;4.00;;;40.60;19.10;;;;;;5143913;27;20480;-89
2022/07/20 12:03:40;;;;;;;6.67;3.60;;;40.70;19.10;;;;;;5138737;27;20533;-87
2022/07/20 12:06:08;;;;;;;4.17;3.50;;;40.60;18.70;;;;;;5143802;27;20873;-87
2022/07/20 12:12:48;;;;;;;6.33;4.10;;;40.80;18.40;;;;;;5123744;27;20460;-89
2022/07/20 12:15:15;;;;;;;3.90;2.70;;;40.90;18.60;;;;;;5124275;27;21111;-90
2022/07/20 12:17:52;;;;;;;3.30;3.00;;;41.10;16.50;;;;;;5107212;27;20947;-89
2022/07/20 12:20:19;;;;;;;3.63;3.30;;;41.20;17.60;;;;;;5123726;27;20436;-89
2022/07/20 12:22:51;;;;;;;4.47;3.17;;;41.50;18.40;;;;;;5144049;27;20469;-89
2022/07/20 12:25:18;;;;;;;3.77;3.47;;;41.70;17.60;;;;;;5143147;27;20437;-87
2022/07/20 12:27:46;;;;;;;4.23;3.73;;;41.80;17.40;;;;;;5141495;27;20456;-90
2022/07/20 12:30:25;;;;;;;5.70;3.80;;;41.80;17.50;;;;;;5120119;27;20456;-90
2022/07/20 12:33:07;;;;;;;3.43;3.13;;;41.80;17.50;;;;;;5124840;27;20430;-89
2022/07/20 12:35:34;;;;;;;4.70;3.00;;;42.00;16.70;;;;;;5142719;27;20480;-89
2022/07/20 12:46:19;;;;;;;4.80;2.60;;;41.50;15.50;;;;;;5090141;27;20952;-88
2022/07/20 12:48:50;;;;;;;5.10;3.07;;;41.60;15.60;;;;;;5143014;27;20532;-89
2022/07/20 12:51:19;;;;;;;3.90;3.60;;;41.80;16.40;;;;;;5139865;27;20465;-88
2022/07/20 12:53:49;;;;;;;3.97;2.90;;;41.90;16.40;;;;;;5109781;27;20460;-85
2022/07/20 12:56:17;;;;;;;3.37;3.03;;;42.10;16.50;;;;;;5136876;27;20449;-88
2022/07/20 12:58:48;;;;;;;4.30;3.00;;;42.10;15.10;;;;;;5103063;27;20441;-87
2022/07/20 13:02:59;;;;;;;3.30;3.00;;;41.90;15.10;;;;;;5122196;27;20465;-86
2022/07/20 13:10:00;;;;;;;8.40;4.00;;;41.70;15.00;;;;;;5142175;27;20696;-87
2022/07/20 13:12:27;;;;;;;10.33;3.60;;;41.90;14.80;;;;;;5139683;27;20488;-86
2022/07/20 13:14:54;;;;;;;4.73;3.23;;;41.90;14.50;;;;;;5138045;27;20579;-87
2022/07/20 13:17:21;;;;;;;5.90;4.40;;;42.00;14.20;;;;;;5120991;27;21220;-87
2022/07/20 13:19:49;;;;;;;4.70;3.40;;;42.20;15.10;;;;;;5104640;27;20452;-87
2022/07/20 13:22:15;;;;;;;8.10;3.30;;;42.30;14.60;;;;;;5121301;27;20472;-88
2022/07/20 13:24:42;;;;;;;5.57;3.00;;;42.40;14.50;;;;;;5139702;27;20453;-87
2022/07/20 13:31:19;;;;;;;6.20;3.53;;;42.60;13.60;;;;;;5119736;27;20441;-88
2022/07/20 13:33:46;;;;;;;5.23;3.20;;;42.60;14.50;;;;;;5107904;27;20456;-89
2022/07/20 13:36:13;;;;;;;4.43;3.30;;;42.70;15.00;;;;;;5110589;27;20432;-88
2022/07/20 13:38:40;;;;;;;4.73;3.47;;;43.00;15.30;;;;;;5138482;27;20456;-88
2022/07/20 13:41:07;;;;;;;6.77;3.80;;;43.30;14.60;;;;;;5143868;27;20476;-88
2022/07/20 13:43:34;;;;;;;4.63;3.40;;;43.50;14.10;;;;;;5122967;27;20472;-89
2022/07/20 13:46:02;;;;;;;5.60;3.90;;;43.40;14.40;;;;;;5141409;27;20479;-88
2022/07/20 13:48:30;;;;;;;9.47;3.70;;;43.40;13.80;;;;;;5124246;27;21223;-87
2022/07/20 13:50:57;;;;;;;3.73;3.27;;;43.00;13.50;;;;;;5123649;27;20460;-86
2022/07/20 13:53:24;;;;;;;5.77;3.37;;;42.80;13.50;;;;;;5106394;27;20452;-87
2022/07/20 13:55:51;;;;;;;5.40;3.70;;;42.90;14.20;;;;;;5119973;27;20972;-87
2022/07/20 13:58:19;;;;;;;4.13;3.83;;;42.90;13.80;;;;;;5097711;27;20444;-87
2022/07/20 14:00:47;;;;;;;4.30;3.60;;;42.80;14.10;;;;;;5090395;27;20503;-87
2022/07/20 14:03:14;;;;;;;4.27;3.80;;;42.70;14.00;;;;;;5135646;27;20472;-87
2022/07/20 14:05:42;;;;;;;7.33;3.43;;;42.20;13.60;;;;;;5140190;27;20463;-88
2022/07/20 14:08:09;;;;;;;7.30;3.90;;;42.20;14.50;;;;;;5121171;27;20456;-88
2022/07/20 14:10:36;;;;;;;6.00;3.60;;;42.60;14.20;;;;;;5039229;27;20444;-88
2022/07/20 14:13:03;;;;;;;4.67;3.50;;;42.70;14.60;;;;;;5144495;27;20445;-87
2022/07/20 14:15:31;;;;;;;4.10;3.77;;;43.00;14.60;;;;;;5139648;27;20449;-88
2022/07/20 14:17:58;;;;;;;5.30;3.90;;;43.20;13.70;;;;;;5123175;27;21074;-88
2022/07/20 14:20:25;;;;;;;3.97;3.40;;;43.20;14.20;;;;;;5140630;27;20450;-88
2022/07/20 14:27:26;;;;;;;6.00;3.77;;;43.10;15.10;;;;;;5094262;27;20935;-88
2022/07/20 14:29:53;;;;;;;3.83;3.37;;;43.30;14.00;;;;;;5118373;27;20448;-88
2022/07/20 14:39:43;;;;;;;7.10;3.87;;;43.10;14.40;;;;;;5103507;27;20467;-89
2022/07/20 14:42:10;;;;;;;4.07;3.77;;;43.20;14.90;;;;;;5134881;27;20971;-88
2022/07/20 14:44:39;;;;;;;6.10;3.70;;;43.30;15.00;;;;;;5136227;27;20473;-88
2022/07/20 14:47:06;;;;;;;5.00;4.47;;;43.20;15.10;;;;;;5099138;27;20445;-87
2022/07/20 14:49:33;;;;;;;3.80;3.50;;;43.10;15.30;;;;;;5114422;27;20460;-88
2022/07/20 14:52:00;;;;;;;3.87;3.47;;;42.90;14.70;;;;;;5139074;27;20471;-87
2022/07/20 14:54:27;;;;;;;5.27;3.83;;;42.50;14.80;;;;;;5116950;27;20445;-88
2022/07/20 14:56:54;;;;;;;4.03;3.50;;;42.20;14.80;;;;;;5142079;27;20467;-86
2022/07/20 14:59:21;;;;;;;5.07;4.07;;;42.00;15.10;;;;;;5135925;27;20451;-88
2022/07/20 15:08:22;;;;;;;6.60;4.73;;;42.00;16.00;;;;;;5120277;27;20814;-86